createdAt,value
2022-08-11T00:01:17.666Z,15.66
2022-08-11T00:03:47.648Z,15.63
2022-08-11T00:06:17.167Z,15.65
2022-08-11T00:08:49.755Z,15.63
2022-08-11T00:11:18.156Z,15.56
2022-08-11T00:13:46.724Z,15.54
2022-08-11T00:16:17.595Z,15.55
2022-08-11T00:18:47.838Z,15.50
2022-08-11T00:21:15.657Z,15.43
2022-08-11T00:23:46.506Z,15.22
2022-08-11T00:26:17.730Z,15.09
2022-08-11T00:28:44.632Z,15.07
2022-08-11T00:31:23.280Z,14.99
2022-08-11T00:33:51.604Z,15.01
2022-08-11T00:36:24.929Z,15.08
2022-08-11T00:38:54.486Z,15.24
2022-08-11T00:41:42.513Z,15.37
2022-08-11T00:44:36.570Z,15.38
2022-08-11T00:47:09.808Z,15.41
2022-08-11T00:49:47.430Z,15.45
2022-08-11T00:52:20.443Z,15.45
2022-08-11T00:55:05.645Z,15.44
2022-08-11T00:57:51.537Z,15.47
2022-08-11T01:00:23.560Z,15.47
2022-08-11T01:03:09.193Z,15.46
2022-08-11T01:06:07.778Z,15.44
2022-08-11T01:08:37.908Z,15.47
2022-08-11T01:11:40.291Z,15.48
2022-08-11T01:14:33.694Z,15.42
2022-08-11T01:17:23.077Z,15.35
2022-08-11T01:20:46.967Z,15.29
2022-08-11T01:23:19.706Z,15.36
2022-08-11T01:25:56.890Z,15.40
2022-08-11T01:28:55.499Z,15.42
2022-08-11T01:31:57.298Z,15.39
2022-08-11T01:34:27.239Z,15.37
2022-08-11T01:37:08.918Z,15.51
2022-08-11T01:40:15.638Z,15.51
2022-08-11T01:43:33.761Z,15.58
2022-08-11T01:46:26.643Z,15.60
2022-08-11T01:50:07.031Z,15.57
2022-08-11T01:52:34.972Z,15.59
2022-08-11T01:55:37.713Z,15.56
2022-08-11T01:58:20.024Z,15.55
2022-08-11T02:01:32.107Z,15.39
2022-08-11T02:04:33.968Z,15.17
2022-08-11T02:07:31.056Z,15.17
2022-08-11T02:10:57.871Z,15.03
2022-08-11T02:14:03.367Z,14.75
2022-08-11T02:16:50.107Z,14.63
2022-08-11T02:19:35.135Z,14.62
2022-08-11T02:22:27.526Z,14.48
2022-08-11T02:25:09.663Z,14.31
2022-08-11T02:27:43.383Z,14.23
2022-08-11T02:30:16.736Z,14.16
2022-08-11T02:33:23.906Z,14.13
2022-08-11T02:35:50.641Z,14.01
2022-08-11T02:38:19.233Z,13.97
2022-08-11T02:40:56.821Z,14.07
2022-08-11T02:43:55.961Z,14.07
2022-08-11T02:47:02.943Z,13.86
2022-08-11T02:50:06.173Z,13.90
2022-08-11T02:53:00.931Z,13.98
2022-08-11T02:55:56.709Z,14.19
2022-08-11T02:58:39.578Z,14.31
2022-08-11T03:01:22.198Z,14.31
2022-08-11T03:04:08.883Z,14.25
2022-08-11T03:07:01.469Z,14.13
2022-08-11T03:09:37.299Z,14.17
2022-08-11T03:12:31.754Z,14.25
2022-08-11T03:15:26.241Z,14.41
2022-08-11T03:17:56.183Z,14.67
2022-08-11T03:20:41.736Z,14.87
2022-08-11T03:23:20.068Z,14.76
2022-08-11T03:26:10.074Z,14.68
2022-08-11T03:28:45.687Z,14.72
2022-08-11T03:31:27.972Z,14.59
2022-08-11T03:34:06.779Z,14.58
2022-08-11T03:36:57.606Z,14.57
2022-08-11T03:40:04.329Z,14.51
2022-08-11T03:42:46.472Z,14.42
2022-08-11T03:45:32.110Z,14.34
2022-08-11T03:48:21.087Z,14.33
2022-08-11T03:51:15.096Z,14.28
2022-08-11T03:53:55.428Z,14.32
2022-08-11T03:56:32.699Z,14.30
2022-08-11T03:59:28.690Z,14.17
2022-08-11T04:02:16.970Z,14.07
2022-08-11T04:04:51.491Z,13.99
2022-08-11T04:07:37.358Z,13.89
2022-08-11T04:10:25.961Z,13.88
2022-08-11T04:12:58.574Z,13.87
2022-08-11T04:16:12.070Z,14.12
2022-08-11T04:19:13.553Z,14.28
2022-08-11T04:22:34.889Z,14.34
2022-08-11T04:25:20.262Z,14.64
2022-08-11T04:28:29.140Z,14.49
2022-08-11T04:31:05.696Z,14.14
2022-08-11T04:33:44.523Z,14.06
2022-08-11T04:37:26.509Z,14.13
2022-08-11T04:40:20.708Z,14.30
2022-08-11T04:43:21.025Z,14.69
2022-08-11T04:46:21.769Z,15.00
2022-08-11T04:49:25.959Z,15.13
2022-08-11T04:52:49.202Z,15.35
2022-08-11T04:55:53.425Z,15.64
2022-08-11T04:59:17.446Z,15.89
2022-08-11T05:02:06.762Z,16.15
2022-08-11T05:05:21.848Z,16.17
2022-08-11T05:08:06.894Z,16.28
2022-08-11T05:10:52.042Z,16.37
2022-08-11T05:13:52.340Z,16.46
2022-08-11T05:16:43.130Z,16.65
2022-08-11T05:19:35.341Z,16.94
2022-08-11T05:22:22.664Z,17.18
2022-08-11T05:26:43.729Z,17.44
2022-08-11T05:28:30.375Z,17.61
2022-08-11T05:31:31.369Z,17.76
2022-08-11T05:34:21.892Z,17.88
2022-08-11T05:37:25.215Z,18.14
2022-08-11T05:40:14.818Z,18.39
2022-08-11T05:43:09.402Z,18.57
2022-08-11T05:46:03.096Z,18.70
2022-08-11T05:48:52.813Z,18.89
2022-08-11T05:51:39.227Z,19.04
2022-08-11T05:54:38.777Z,19.35
2022-08-11T05:57:06.474Z,19.51
2022-08-11T05:59:34.283Z,19.66
2022-08-11T06:02:04.495Z,19.84
2022-08-11T06:04:32.309Z,20.28
2022-08-11T06:07:03.974Z,20.44
2022-08-11T06:09:36.532Z,20.76
2022-08-11T06:12:26.224Z,21.03
2022-08-11T06:14:57.981Z,21.18
2022-08-11T06:17:38.347Z,21.50
2022-08-11T06:20:09.703Z,22.00
2022-08-11T06:22:37.078Z,22.33
2022-08-11T06:25:07.116Z,22.44
2022-08-11T06:27:37.546Z,22.80
2022-08-11T06:30:15.960Z,23.02
2022-08-11T06:32:51.450Z,22.80
2022-08-11T06:35:46.098Z,22.73
2022-08-11T06:38:21.748Z,23.04
2022-08-11T06:41:15.440Z,23.52
2022-08-11T06:44:05.052Z,24.01
2022-08-11T06:46:39.038Z,24.21
2022-08-11T06:49:31.415Z,24.67
2022-08-11T06:52:35.351Z,24.84
2022-08-11T06:55:56.011Z,24.39
2022-08-11T06:58:16.822Z,23.90
2022-08-11T07:00:47.239Z,24.04
2022-08-11T07:03:19.597Z,24.63
2022-08-11T07:05:55.878Z,24.58
2022-08-11T07:09:19.146Z,24.86
2022-08-11T07:12:10.855Z,25.30
2022-08-11T07:15:00.726Z,24.85
2022-08-11T07:17:29.250Z,25.08
2022-08-11T07:20:19.809Z,25.62
2022-08-11T07:23:13.722Z,26.11
2022-08-11T07:26:02.030Z,25.99
2022-08-11T07:28:49.075Z,26.37
2022-08-11T07:31:30.977Z,26.44
2022-08-11T07:34:36.000Z,27.38
2022-08-11T07:37:15.326Z,26.69
2022-08-11T07:39:44.421Z,26.22
2022-08-11T07:42:15.112Z,26.81
2022-08-11T07:45:01.835Z,26.56
2022-08-11T07:47:48.226Z,26.77
2022-08-11T07:50:34.438Z,27.28
2022-08-11T07:53:02.947Z,27.55
2022-08-11T07:55:51.356Z,27.28
2022-08-11T07:58:45.007Z,28.24
2022-08-11T08:01:44.330Z,29.10
2022-08-11T08:04:33.520Z,28.48
2022-08-11T08:07:22.062Z,28.69
2022-08-11T08:10:08.335Z,28.47
2022-08-11T08:12:54.076Z,28.27
2022-08-11T08:15:41.142Z,28.26
2022-08-11T08:18:26.104Z,27.87
2022-08-11T08:20:56.838Z,28.74
2022-08-11T08:23:34.050Z,29.06
2022-08-11T08:26:04.706Z,29.34
2022-08-11T08:28:33.708Z,29.22
2022-08-11T08:31:00.750Z,29.60
2022-08-11T08:33:30.403Z,30.16
2022-08-11T08:36:15.550Z,29.61
2022-08-11T08:38:47.908Z,30.22
2022-08-11T08:41:19.742Z,30.54
2022-08-11T08:43:51.503Z,30.52
2022-08-11T08:46:23.601Z,30.25
2022-08-11T08:48:53.399Z,30.08
2022-08-11T08:51:58.772Z,30.22
2022-08-11T08:54:27.842Z,30.19
2022-08-11T08:56:56.748Z,31.17
2022-08-11T08:59:26.766Z,31.91
2022-08-11T09:02:14.131Z,32.65
2022-08-11T09:04:44.535Z,32.25
2022-08-11T09:07:15.392Z,31.25
2022-08-11T09:09:48.235Z,30.61
2022-08-11T09:12:16.952Z,30.88
2022-08-11T09:15:05.968Z,31.06
2022-08-11T09:17:37.167Z,31.87
2022-08-11T09:20:24.906Z,32.69
2022-08-11T09:26:21.562Z,31.44
2022-08-11T09:28:50.146Z,31.95
2022-08-11T09:31:17.348Z,31.54
2022-08-11T09:33:44.835Z,31.38
2022-08-11T09:36:31.929Z,32.12
2022-08-11T09:39:19.413Z,32.86
2022-08-11T09:42:01.399Z,33.32
2022-08-11T09:44:50.252Z,32.20
2022-08-11T09:47:20.857Z,32.23
2022-08-11T09:49:49.353Z,33.25
2022-08-11T09:52:18.476Z,32.86
2022-08-11T09:54:49.877Z,32.67
2022-08-11T09:57:40.082Z,32.28
2022-08-11T10:00:13.347Z,31.95
2022-08-11T10:02:44.303Z,32.14
2022-08-11T10:05:33.229Z,32.61
2022-08-11T10:08:01.432Z,32.46
2022-08-11T10:10:29.941Z,32.01
2022-08-11T10:13:04.311Z,31.91
2022-08-11T10:15:35.472Z,33.33
2022-08-11T10:18:29.952Z,33.92
2022-08-11T10:21:02.684Z,33.89
2022-08-11T10:24:00.841Z,34.65
2022-08-11T10:27:06.062Z,35.11
2022-08-11T10:29:58.089Z,33.03
2022-08-11T10:32:58.639Z,33.33
2022-08-11T10:35:32.563Z,33.02
2022-08-11T10:38:08.144Z,33.72
2022-08-11T10:40:40.955Z,33.81
2022-08-11T10:44:02.786Z,34.45
2022-08-11T10:46:29.967Z,35.10
2022-08-11T10:48:59.200Z,33.68
2022-08-11T10:51:50.886Z,34.86
2022-08-11T10:54:40.171Z,35.30
2022-08-11T10:57:25.979Z,33.79
2022-08-11T10:59:56.484Z,35.24
2022-08-11T11:02:24.345Z,35.40
2022-08-11T11:05:02.821Z,34.76
2022-08-11T11:07:44.124Z,34.32
2022-08-11T11:10:11.568Z,34.90
2022-08-11T11:13:12.070Z,35.23
2022-08-11T11:16:01.473Z,35.82
2022-08-11T11:18:35.833Z,34.59
2022-08-11T11:21:18.585Z,33.50
2022-08-11T11:24:16.835Z,34.27
2022-08-11T11:27:01.092Z,33.71
2022-08-11T11:29:53.059Z,33.73
2022-08-11T11:32:35.262Z,34.52
2022-08-11T11:35:26.757Z,33.30
2022-08-11T11:38:04.886Z,34.79
2022-08-11T11:40:33.159Z,36.03
2022-08-11T11:43:01.165Z,35.25
2022-08-11T11:45:28.660Z,35.03
2022-08-11T11:47:58.382Z,34.86
2022-08-11T11:50:32.898Z,35.05
2022-08-11T11:53:03.727Z,35.16
2022-08-11T11:55:31.038Z,34.16
2022-08-11T11:58:19.084Z,33.99
2022-08-11T12:01:05.890Z,32.69
2022-08-11T12:03:35.488Z,33.14
2022-08-11T12:06:03.767Z,34.40
2022-08-11T12:08:31.626Z,33.62
2022-08-11T12:11:22.875Z,34.89
2022-08-11T12:13:52.063Z,35.74
2022-08-11T12:16:32.872Z,37.79
2022-08-11T12:19:05.685Z,35.44
2022-08-11T12:21:35.250Z,35.74
2022-08-11T12:24:21.559Z,36.23
2022-08-11T12:27:15.152Z,37.93
2022-08-11T12:29:41.221Z,36.32
2022-08-11T12:32:11.329Z,34.99
2022-08-11T12:34:38.319Z,36.11
2022-08-11T12:37:13.039Z,34.87
2022-08-11T12:40:16.729Z,36.87
2022-08-11T12:43:21.065Z,37.09
2022-08-11T12:45:54.105Z,34.86
2022-08-11T12:48:58.981Z,34.21
2022-08-11T12:52:06.743Z,33.72
2022-08-11T12:54:48.024Z,33.85
2022-08-11T12:57:37.871Z,33.04
2022-08-11T13:00:25.263Z,33.03
2022-08-11T13:03:12.169Z,33.69
2022-08-11T13:05:44.416Z,34.71
2022-08-11T13:08:16.669Z,34.34
2022-08-11T13:11:04.097Z,34.57
2022-08-11T13:13:53.587Z,35.18
2022-08-11T13:16:20.710Z,34.55
2022-08-11T13:18:48.731Z,34.82
2022-08-11T13:21:20.326Z,34.30
2022-08-11T13:24:01.264Z,34.11
2022-08-11T13:26:47.353Z,34.95
2022-08-11T13:29:19.759Z,35.05
2022-08-11T13:31:47.308Z,34.61
2022-08-11T13:34:16.704Z,33.39
2022-08-11T13:36:44.748Z,34.19
2022-08-11T13:39:13.408Z,34.28
2022-08-11T13:41:44.098Z,34.82
2022-08-11T13:44:17.482Z,34.09
2022-08-11T13:46:48.156Z,34.19
2022-08-11T13:49:21.434Z,33.67
2022-08-11T13:51:48.583Z,34.96
2022-08-11T13:54:26.049Z,33.91
2022-08-11T13:56:56.164Z,33.44
2022-08-11T13:59:30.931Z,33.21
2022-08-11T14:02:21.850Z,33.31
2022-08-11T14:05:00.211Z,33.85
2022-08-11T14:07:42.001Z,33.69
2022-08-11T14:10:13.337Z,33.76
2022-08-11T14:13:01.555Z,34.07
2022-08-11T14:15:34.614Z,33.54
2022-08-11T14:18:06.776Z,34.18
2022-08-11T14:20:55.991Z,33.07
2022-08-11T14:23:28.547Z,32.36
2022-08-11T14:26:15.109Z,33.10
2022-08-11T14:28:45.127Z,33.21
2022-08-11T14:31:15.060Z,34.03
2022-08-11T14:34:00.751Z,34.14
2022-08-11T14:36:35.553Z,32.84
2022-08-11T14:39:07.124Z,32.99
2022-08-11T14:42:09.963Z,33.63
2022-08-11T14:45:04.932Z,34.20
2022-08-11T14:47:35.916Z,33.89
2022-08-11T14:50:11.464Z,32.71
2022-08-11T14:52:43.960Z,32.91
2022-08-11T14:55:30.581Z,32.65
2022-08-11T14:57:58.401Z,34.81
2022-08-11T15:00:25.928Z,33.91
2022-08-11T15:03:13.517Z,34.56
2022-08-11T15:06:02.149Z,33.09
2022-08-11T15:08:53.353Z,33.60
2022-08-11T15:11:44.263Z,33.69
2022-08-11T15:14:12.794Z,33.04
2022-08-11T15:17:03.065Z,33.20
2022-08-11T15:19:40.159Z,32.97
2022-08-11T15:22:28.233Z,32.73
2022-08-11T15:24:57.588Z,33.27
2022-08-11T15:27:44.513Z,34.27
2022-08-11T15:30:33.165Z,33.78
2022-08-11T15:33:27.954Z,35.29
2022-08-11T15:36:15.392Z,33.48
2022-08-11T15:38:49.198Z,33.40
2022-08-11T15:41:54.591Z,33.53
2022-08-11T15:45:02.723Z,32.51
2022-08-11T15:47:44.539Z,30.87
2022-08-11T15:50:19.957Z,29.93
2022-08-11T15:52:58.039Z,28.62
2022-08-11T15:55:26.175Z,27.89
2022-08-11T15:58:13.503Z,27.65
2022-08-11T16:01:08.726Z,27.54
2022-08-11T16:04:09.484Z,27.29
2022-08-11T16:06:49.563Z,27.19
2022-08-11T16:09:48.209Z,26.87
2022-08-11T16:12:35.523Z,26.80
2022-08-11T16:15:25.534Z,26.60
2022-08-11T16:17:56.529Z,26.57
2022-08-11T16:20:26.660Z,26.51
2022-08-11T16:23:01.987Z,26.52
2022-08-11T16:27:06.118Z,26.49
2022-08-11T16:28:21.953Z,26.50
2022-08-11T16:30:49.943Z,26.52
2022-08-11T16:33:48.410Z,26.42
2022-08-11T16:36:24.814Z,26.64
2022-08-11T16:38:53.783Z,26.75
2022-08-11T16:41:44.279Z,26.64
2022-08-11T16:44:32.726Z,25.98
2022-08-11T16:47:06.528Z,25.59
2022-08-11T16:49:37.222Z,25.41
2022-08-11T16:52:08.083Z,25.42
2022-08-11T16:54:35.746Z,25.25
2022-08-11T16:57:27.586Z,25.20
2022-08-11T16:59:58.047Z,25.08
2022-08-11T17:02:48.805Z,25.00
2022-08-11T17:05:54.208Z,24.89
2022-08-11T17:08:57.026Z,24.77
2022-08-11T17:11:49.750Z,24.74
2022-08-11T17:14:35.276Z,24.60
2022-08-11T17:17:07.290Z,24.56
2022-08-11T17:20:40.730Z,24.47
2022-08-11T17:22:42.130Z,24.46
2022-08-11T17:25:11.503Z,24.41
2022-08-11T17:27:39.796Z,24.29
2022-08-11T17:30:08.673Z,24.28
2022-08-11T17:33:00.852Z,24.16
2022-08-11T17:35:41.131Z,24.01
2022-08-11T17:38:15.500Z,23.98
2022-08-11T17:41:05.628Z,23.97
2022-08-11T17:43:51.902Z,23.83
2022-08-11T17:46:38.326Z,23.72
2022-08-11T17:49:07.845Z,23.60
2022-08-11T17:51:56.003Z,23.46
2022-08-11T17:54:42.844Z,23.37
2022-08-11T17:57:30.275Z,23.28
2022-08-11T17:59:58.959Z,23.13
2022-08-11T18:02:55.600Z,23.15
2022-08-11T18:05:28.257Z,23.05
2022-08-11T18:08:16.038Z,23.02
2022-08-11T18:11:03.429Z,23.03
2022-08-11T18:13:51.469Z,22.88
2022-08-11T18:16:37.147Z,22.74
2022-08-11T18:19:24.534Z,22.64
2022-08-11T18:22:15.457Z,22.50
2022-08-11T18:25:12.449Z,22.31
2022-08-11T18:28:03.279Z,22.20
2022-08-11T18:31:03.564Z,22.01
2022-08-11T18:34:09.520Z,21.94
2022-08-11T18:37:01.055Z,21.84
2022-08-11T18:39:56.345Z,21.58
2022-08-11T18:42:43.589Z,21.39
2022-08-11T18:45:38.470Z,21.37
2022-08-11T18:48:37.272Z,21.32
2022-08-11T18:51:31.466Z,21.16
2022-08-11T18:54:27.304Z,21.06
2022-08-11T18:57:16.832Z,21.02
2022-08-11T19:00:05.669Z,20.94
2022-08-11T19:02:55.615Z,20.90
2022-08-11T19:06:31.815Z,20.94
2022-08-11T19:08:53.626Z,20.69
2022-08-11T19:11:42.865Z,20.73
2022-08-11T19:14:31.453Z,20.85
2022-08-11T19:17:44.338Z,20.81
2022-08-11T19:20:31.968Z,20.68
2022-08-11T19:23:18.327Z,20.51
2022-08-11T19:26:06.227Z,20.39
2022-08-11T19:28:54.550Z,20.37
2022-08-11T19:31:44.424Z,20.23
2022-08-11T19:34:34.423Z,20.06
2022-08-11T19:37:24.368Z,19.93
2022-08-11T19:40:13.572Z,19.84
2022-08-11T19:43:01.950Z,19.70
2022-08-11T19:45:52.530Z,19.42
2022-08-11T19:48:44.586Z,19.12
2022-08-11T19:51:31.534Z,18.88
2022-08-11T19:54:18.412Z,18.72
2022-08-11T19:57:04.530Z,18.63
2022-08-11T19:59:51.974Z,18.68
2022-08-11T20:02:38.625Z,18.73
2022-08-11T20:05:25.352Z,18.73
2022-08-11T20:08:14.642Z,18.75
2022-08-11T20:11:01.068Z,18.70
2022-08-11T20:13:47.870Z,18.67
2022-08-11T20:16:38.290Z,18.64
2022-08-11T20:19:26.225Z,18.52
2022-08-11T20:22:34.496Z,18.37
2022-08-11T20:25:21.870Z,18.24
2022-08-11T20:28:08.928Z,18.07
2022-08-11T20:30:55.860Z,17.87
2022-08-11T20:33:42.828Z,17.76
2022-08-11T20:36:29.285Z,17.76
2022-08-11T20:39:15.185Z,17.77
2022-08-11T20:42:01.588Z,17.92
2022-08-11T20:44:48.991Z,18.02
2022-08-11T20:47:59.602Z,18.10
2022-08-11T20:50:45.607Z,18.16
2022-08-11T20:53:35.965Z,18.18
2022-08-11T20:56:28.795Z,18.17
2022-08-11T20:59:21.936Z,18.09
2022-08-11T21:02:10.321Z,18.13
2022-08-11T21:05:00.230Z,18.15
2022-08-11T21:07:57.283Z,18.20
2022-08-11T21:10:51.536Z,18.22
2022-08-11T21:13:41.375Z,18.23
2022-08-11T21:16:30.900Z,18.17
2022-08-11T21:20:00.061Z,18.07
2022-08-11T21:22:42.416Z,17.89
2022-08-11T21:25:47.981Z,17.67
2022-08-11T21:28:36.536Z,17.49
2022-08-11T21:31:23.230Z,17.38
2022-08-11T21:34:09.664Z,17.34
2022-08-11T21:36:55.645Z,17.39
2022-08-11T21:39:42.593Z,17.48
2022-08-11T21:42:29.467Z,17.60
2022-08-11T21:45:16.895Z,17.67
2022-08-11T21:48:03.689Z,17.75
2022-08-11T21:50:48.979Z,17.70
2022-08-11T21:53:34.951Z,17.56
2022-08-11T21:56:22.207Z,17.46
2022-08-11T21:59:15.052Z,17.39
2022-08-11T22:02:01.992Z,17.49
2022-08-11T22:04:50.011Z,17.49
2022-08-11T22:07:39.362Z,17.50
2022-08-11T22:10:35.985Z,17.54
2022-08-11T22:13:31.860Z,17.53
2022-08-11T22:16:20.935Z,17.49
2022-08-11T22:19:09.514Z,17.53
2022-08-11T22:22:02.721Z,17.65
2022-08-11T22:24:52.255Z,17.79
2022-08-11T22:27:39.586Z,17.87
2022-08-11T22:30:30.005Z,17.82
2022-08-11T22:33:18.667Z,17.88
2022-08-11T22:36:12.467Z,17.84
2022-08-11T22:38:59.833Z,17.71
2022-08-11T22:41:45.664Z,17.46
2022-08-11T22:44:31.286Z,17.26
2022-08-11T22:47:19.224Z,17.11
2022-08-11T22:50:07.735Z,17.05
2022-08-11T22:52:55.547Z,16.96
2022-08-11T22:55:42.906Z,16.88
2022-08-11T22:58:29.249Z,16.85
2022-08-11T23:01:16.214Z,16.89
2022-08-11T23:04:03.561Z,17.03
2022-08-11T23:06:50.026Z,17.14
2022-08-11T23:09:36.478Z,17.20
2022-08-11T23:12:22.846Z,17.21
2022-08-11T23:15:10.557Z,17.30
2022-08-11T23:17:56.999Z,17.41
2022-08-11T23:20:45.157Z,17.46
2022-08-11T23:23:46.924Z,17.55
2022-08-11T23:26:33.963Z,17.49
2022-08-11T23:29:19.741Z,17.37
2022-08-11T23:32:07.790Z,17.30
2022-08-11T23:35:04.390Z,17.29
2022-08-11T23:38:05.778Z,17.17
2022-08-11T23:40:51.251Z,17.10
2022-08-11T23:43:40.588Z,17.10
2022-08-11T23:46:26.032Z,17.11
2022-08-11T23:49:18.003Z,17.21
2022-08-11T23:52:04.477Z,17.19
2022-08-11T23:54:51.731Z,17.16
2022-08-11T23:57:37.130Z,17.29
